sensor_id;sensor_type;location;lat;lon;timestamp;P1;durP1;ratioP1;P2;durP2;ratioP2
20369;SDS011;10344;47.592;9.600;2023-01-31T00:01:27;9.10;;;7.43;;
20369;SDS011;10344;47.592;9.600;2023-01-31T00:03:55;8.95;;;7.65;;
20369;SDS011;10344;47.592;9.600;2023-01-31T00:06:28;9.18;;;6.88;;
20369;SDS011;10344;47.592;9.600;2023-01-31T00:08:57;9.20;;;7.15;;
20369;SDS011;10344;47.592;9.600;2023-01-31T00:11:26;9.30;;;7.30;;
20369;SDS011;10344;47.592;9.600;2023-01-31T00:13:53;8.82;;;7.18;;
20369;SDS011;10344;47.592;9.600;2023-01-31T00:16:20;8.32;;;6.65;;
20369;SDS011;10344;47.592;9.600;2023-01-31T00:18:50;10.05;;;7.88;;
20369;SDS011;10344;47.592;9.600;2023-01-31T00:21:16;9.27;;;7.20;;
20369;SDS011;10344;47.592;9.600;2023-01-31T00:23:47;8.15;;;6.93;;
20369;SDS011;10344;47.592;9.600;2023-01-31T00:26:14;9.00;;;7.30;;
20369;SDS011;10344;47.592;9.600;2023-01-31T00:28:42;10.38;;;8.02;;
20369;SDS011;10344;47.592;9.600;2023-01-31T00:31:09;8.48;;;6.78;;
20369;SDS011;10344;47.592;9.600;2023-01-31T00:33:36;8.95;;;6.82;;
20369;SDS011;10344;47.592;9.600;2023-01-31T00:36:04;9.50;;;7.60;;
20369;SDS011;10344;47.592;9.600;2023-01-31T00:38:39;8.90;;;7.07;;
20369;SDS011;10344;47.592;9.600;2023-01-31T00:41:08;9.35;;;7.60;;
20369;SDS011;10344;47.592;9.600;2023-01-31T00:43:37;8.85;;;7.10;;
20369;SDS011;10344;47.592;9.600;2023-01-31T00:46:02;8.27;;;6.68;;
20369;SDS011;10344;47.592;9.600;2023-01-31T00:48:31;8.23;;;7.10;;
20369;SDS011;10344;47.592;9.600;2023-01-31T00:50:59;8.77;;;6.85;;
20369;SDS011;10344;47.592;9.600;2023-01-31T00:53:27;9.25;;;7.53;;
20369;SDS011;10344;47.592;9.600;2023-01-31T00:55:53;9.63;;;7.53;;
20369;SDS011;10344;47.592;9.600;2023-01-31T00:58:21;9.15;;;7.55;;
20369;SDS011;10344;47.592;9.600;2023-01-31T01:00:47;9.98;;;7.68;;
20369;SDS011;10344;47.592;9.600;2023-01-31T01:03:13;10.43;;;7.35;;
20369;SDS011;10344;47.592;9.600;2023-01-31T01:05:41;9.38;;;7.35;;
20369;SDS011;10344;47.592;9.600;2023-01-31T01:08:11;9.50;;;7.50;;
20369;SDS011;10344;47.592;9.600;2023-01-31T01:10:37;10.18;;;7.28;;
20369;SDS011;10344;47.592;9.600;2023-01-31T01:13:05;9.25;;;7.20;;
20369;SDS011;10344;47.592;9.600;2023-01-31T01:15:30;9.30;;;7.38;;
20369;SDS011;10344;47.592;9.600;2023-01-31T01:17:58;8.23;;;6.30;;
20369;SDS011;10344;47.592;9.600;2023-01-31T01:20:24;7.53;;;6.53;;
20369;SDS011;10344;47.592;9.600;2023-01-31T01:22:49;8.80;;;7.70;;
20369;SDS011;10344;47.592;9.600;2023-01-31T01:25:15;9.60;;;7.55;;
20369;SDS011;10344;47.592;9.600;2023-01-31T01:27:41;9.80;;;7.57;;
20369;SDS011;10344;47.592;9.600;2023-01-31T01:30:06;9.52;;;7.78;;
20369;SDS011;10344;47.592;9.600;2023-01-31T01:32:35;8.75;;;7.40;;
20369;SDS011;10344;47.592;9.600;2023-01-31T01:35:01;9.57;;;7.30;;
20369;SDS011;10344;47.592;9.600;2023-01-31T01:37:27;9.67;;;7.43;;
20369;SDS011;10344;47.592;9.600;2023-01-31T01:39:54;8.75;;;7.15;;
20369;SDS011;10344;47.592;9.600;2023-01-31T01:42:22;9.05;;;7.05;;
20369;SDS011;10344;47.592;9.600;2023-01-31T01:47:39;8.60;;;6.40;;
20369;SDS011;10344;47.592;9.600;2023-01-31T01:50:30;8.02;;;6.65;;
20369;SDS011;10344;47.592;9.600;2023-01-31T01:53:09;8.48;;;6.90;;
20369;SDS011;10344;47.592;9.600;2023-01-31T01:55:45;8.20;;;6.95;;
20369;SDS011;10344;47.592;9.600;2023-01-31T01:58:24;8.20;;;7.00;;
20369;SDS011;10344;47.592;9.600;2023-01-31T02:00:53;8.30;;;6.68;;
20369;SDS011;10344;47.592;9.600;2023-01-31T02:03:21;7.70;;;6.45;;
20369;SDS011;10344;47.592;9.600;2023-01-31T02:05:48;8.27;;;6.60;;
20369;SDS011;10344;47.592;9.600;2023-01-31T02:08:23;7.80;;;6.28;;
20369;SDS011;10344;47.592;9.600;2023-01-31T02:13:44;9.68;;;7.20;;
20369;SDS011;10344;47.592;9.600;2023-01-31T02:16:11;8.95;;;6.90;;
20369;SDS011;10344;47.592;9.600;2023-01-31T02:18:37;8.57;;;6.47;;
20369;SDS011;10344;47.592;9.600;2023-01-31T02:37:31;7.82;;;6.50;;
20369;SDS011;10344;47.592;9.600;2023-01-31T02:40:13;8.95;;;6.47;;
20369;SDS011;10344;47.592;9.600;2023-01-31T02:53:48;7.72;;;5.78;;
20369;SDS011;10344;47.592;9.600;2023-01-31T02:56:20;6.63;;;5.30;;
20369;SDS011;10344;47.592;9.600;2023-01-31T02:58:57;6.63;;;5.70;;
20369;SDS011;10344;47.592;9.600;2023-01-31T03:01:25;5.90;;;5.30;;
20369;SDS011;10344;47.592;9.600;2023-01-31T03:03:58;7.43;;;5.30;;
20369;SDS011;10344;47.592;9.600;2023-01-31T03:14:27;7.32;;;5.65;;
20369;SDS011;10344;47.592;9.600;2023-01-31T03:19:45;6.13;;;5.50;;
20369;SDS011;10344;47.592;9.600;2023-01-31T03:22:22;7.55;;;5.55;;
20369;SDS011;10344;47.592;9.600;2023-01-31T03:24:55;7.05;;;5.35;;
20369;SDS011;10344;47.592;9.600;2023-01-31T03:27:23;8.00;;;5.40;;
20369;SDS011;10344;47.592;9.600;2023-01-31T03:29:49;7.00;;;5.78;;
20369;SDS011;10344;47.592;9.600;2023-01-31T03:32:21;7.07;;;5.53;;
20369;SDS011;10344;47.592;9.600;2023-01-31T03:34:51;7.25;;;5.65;;
20369;SDS011;10344;47.592;9.600;2023-01-31T03:37:33;7.32;;;5.63;;
20369;SDS011;10344;47.592;9.600;2023-01-31T03:40:12;6.75;;;5.43;;
20369;SDS011;10344;47.592;9.600;2023-01-31T03:48:25;7.32;;;5.80;;
20369;SDS011;10344;47.592;9.600;2023-01-31T03:51:01;6.53;;;5.53;;
20369;SDS011;10344;47.592;9.600;2023-01-31T03:53:40;7.47;;;5.60;;
20369;SDS011;10344;47.592;9.600;2023-01-31T03:56:17;7.22;;;5.60;;
20369;SDS011;10344;47.592;9.600;2023-01-31T03:58:49;7.18;;;5.55;;
20369;SDS011;10344;47.592;9.600;2023-01-31T04:01:20;6.95;;;5.65;;
20369;SDS011;10344;47.592;9.600;2023-01-31T04:03:56;6.05;;;5.20;;
20369;SDS011;10344;47.592;9.600;2023-01-31T04:06:26;6.95;;;5.38;;
20369;SDS011;10344;47.592;9.600;2023-01-31T04:08:53;7.18;;;5.40;;
20369;SDS011;10344;47.592;9.600;2023-01-31T04:11:19;7.30;;;5.50;;
20369;SDS011;10344;47.592;9.600;2023-01-31T04:13:48;6.88;;;5.50;;
20369;SDS011;10344;47.592;9.600;2023-01-31T04:16:13;6.97;;;5.70;;
20369;SDS011;10344;47.592;9.600;2023-01-31T04:18:42;6.13;;;5.10;;
20369;SDS011;10344;47.592;9.600;2023-01-31T04:21:07;6.93;;;5.22;;
20369;SDS011;10344;47.592;9.600;2023-01-31T04:23:37;6.57;;;5.00;;
20369;SDS011;10344;47.592;9.600;2023-01-31T04:26:02;6.43;;;5.03;;
20369;SDS011;10344;47.592;9.600;2023-01-31T04:28:28;6.80;;;5.27;;
20369;SDS011;10344;47.592;9.600;2023-01-31T04:30:56;6.05;;;4.60;;
20369;SDS011;10344;47.592;9.600;2023-01-31T04:33:22;6.43;;;5.40;;
20369;SDS011;10344;47.592;9.600;2023-01-31T04:35:49;5.28;;;4.50;;
20369;SDS011;10344;47.592;9.600;2023-01-31T04:38:15;5.30;;;4.70;;
20369;SDS011;10344;47.592;9.600;2023-01-31T04:40:41;5.90;;;5.10;;
20369;SDS011;10344;47.592;9.600;2023-01-31T04:43:07;6.20;;;5.28;;
20369;SDS011;10344;47.592;9.600;2023-01-31T04:45:34;5.82;;;4.80;;
20369;SDS011;10344;47.592;9.600;2023-01-31T04:48:00;5.43;;;4.90;;
20369;SDS011;10344;47.592;9.600;2023-01-31T04:50:25;6.72;;;5.20;;
20369;SDS011;10344;47.592;9.600;2023-01-31T04:52:51;7.00;;;5.40;;
20369;SDS011;10344;47.592;9.600;2023-01-31T04:55:17;6.30;;;5.07;;
20369;SDS011;10344;47.592;9.600;2023-01-31T04:57:47;5.65;;;5.05;;
20369;SDS011;10344;47.592;9.600;2023-01-31T05:00:15;6.32;;;5.25;;
20369;SDS011;10344;47.592;9.600;2023-01-31T05:02:41;6.15;;;5.00;;
20369;SDS011;10344;47.592;9.600;2023-01-31T05:05:07;7.25;;;5.20;;
20369;SDS011;10344;47.592;9.600;2023-01-31T05:07:33;6.30;;;5.22;;
20369;SDS011;10344;47.592;9.600;2023-01-31T05:10:01;5.30;;;4.63;;
20369;SDS011;10344;47.592;9.600;2023-01-31T05:12:28;5.47;;;4.43;;
20369;SDS011;10344;47.592;9.600;2023-01-31T05:14:55;6.70;;;5.40;;
20369;SDS011;10344;47.592;9.600;2023-01-31T05:17:23;7.00;;;5.32;;
20369;SDS011;10344;47.592;9.600;2023-01-31T05:19:50;6.45;;;5.20;;
20369;SDS011;10344;47.592;9.600;2023-01-31T05:22:18;7.80;;;5.10;;
20369;SDS011;10344;47.592;9.600;2023-01-31T05:24:49;7.45;;;5.80;;
20369;SDS011;10344;47.592;9.600;2023-01-31T05:27:14;8.00;;;5.60;;
20369;SDS011;10344;47.592;9.600;2023-01-31T05:29:41;7.03;;;5.53;;
20369;SDS011;10344;47.592;9.600;2023-01-31T05:32:09;7.88;;;5.70;;
20369;SDS011;10344;47.592;9.600;2023-01-31T05:34:34;8.53;;;6.37;;
20369;SDS011;10344;47.592;9.600;2023-01-31T05:37:02;8.38;;;6.50;;
20369;SDS011;10344;47.592;9.600;2023-01-31T05:39:31;9.10;;;6.22;;
20369;SDS011;10344;47.592;9.600;2023-01-31T05:41:59;7.97;;;5.80;;
20369;SDS011;10344;47.592;9.600;2023-01-31T05:44:30;7.70;;;5.95;;
20369;SDS011;10344;47.592;9.600;2023-01-31T05:46:58;7.32;;;5.53;;
20369;SDS011;10344;47.592;9.600;2023-01-31T05:49:25;7.57;;;5.55;;
20369;SDS011;10344;47.592;9.600;2023-01-31T05:51:51;8.18;;;5.43;;
20369;SDS011;10344;47.592;9.600;2023-01-31T05:54:17;6.70;;;5.20;;
20369;SDS011;10344;47.592;9.600;2023-01-31T05:56:42;7.05;;;5.38;;
20369;SDS011;10344;47.592;9.600;2023-01-31T05:59:08;6.27;;;4.70;;
20369;SDS011;10344;47.592;9.600;2023-01-31T06:01:33;5.90;;;5.20;;
20369;SDS011;10344;47.592;9.600;2023-01-31T06:10:31;7.20;;;5.40;;
20369;SDS011;10344;47.592;9.600;2023-01-31T06:12:56;5.55;;;4.75;;
20369;SDS011;10344;47.592;9.600;2023-01-31T06:15:26;8.05;;;5.57;;
20369;SDS011;10344;47.592;9.600;2023-01-31T06:17:52;6.13;;;5.10;;
20369;SDS011;10344;47.592;9.600;2023-01-31T06:20:17;7.33;;;5.37;;
20369;SDS011;10344;47.592;9.600;2023-01-31T06:22:43;7.82;;;6.15;;
20369;SDS011;10344;47.592;9.600;2023-01-31T06:25:09;7.60;;;5.90;;
20369;SDS011;10344;47.592;9.600;2023-01-31T06:27:35;6.10;;;5.40;;
20369;SDS011;10344;47.592;9.600;2023-01-31T06:30:03;7.85;;;5.60;;
20369;SDS011;10344;47.592;9.600;2023-01-31T06:32:29;5.82;;;5.22;;
20369;SDS011;10344;47.592;9.600;2023-01-31T06:34:55;6.40;;;5.50;;
20369;SDS011;10344;47.592;9.600;2023-01-31T06:37:21;7.40;;;5.80;;
20369;SDS011;10344;47.592;9.600;2023-01-31T06:39:49;7.17;;;5.83;;
20369;SDS011;10344;47.592;9.600;2023-01-31T06:42:15;7.07;;;6.00;;
20369;SDS011;10344;47.592;9.600;2023-01-31T06:44:43;6.63;;;5.27;;
20369;SDS011;10344;47.592;9.600;2023-01-31T06:47:09;8.05;;;5.88;;
20369;SDS011;10344;47.592;9.600;2023-01-31T06:49:38;7.95;;;6.10;;
20369;SDS011;10344;47.592;9.600;2023-01-31T06:52:04;7.05;;;5.80;;
20369;SDS011;10344;47.592;9.600;2023-01-31T06:54:30;9.57;;;7.00;;
20369;SDS011;10344;47.592;9.600;2023-01-31T06:56:56;9.07;;;7.28;;
20369;SDS011;10344;47.592;9.600;2023-01-31T06:59:21;8.50;;;7.30;;
20369;SDS011;10344;47.592;9.600;2023-01-31T07:01:47;10.38;;;7.60;;
20369;SDS011;10344;47.592;9.600;2023-01-31T07:04:13;9.10;;;7.15;;
20369;SDS011;10344;47.592;9.600;2023-01-31T07:06:39;8.33;;;7.03;;
20369;SDS011;10344;47.592;9.600;2023-01-31T07:09:04;8.27;;;6.63;;
20369;SDS011;10344;47.592;9.600;2023-01-31T07:11:33;8.65;;;6.40;;
20369;SDS011;10344;47.592;9.600;2023-01-31T07:14:00;7.53;;;6.22;;
20369;SDS011;10344;47.592;9.600;2023-01-31T07:16:26;7.75;;;6.50;;
20369;SDS011;10344;47.592;9.600;2023-01-31T07:18:52;7.67;;;6.43;;
20369;SDS011;10344;47.592;9.600;2023-01-31T07:21:18;7.97;;;6.50;;
20369;SDS011;10344;47.592;9.600;2023-01-31T07:23:47;8.10;;;6.13;;
20369;SDS011;10344;47.592;9.600;2023-01-31T07:26:13;7.90;;;6.75;;
20369;SDS011;10344;47.592;9.600;2023-01-31T07:28:41;7.93;;;5.97;;
20369;SDS011;10344;47.592;9.600;2023-01-31T07:31:08;6.90;;;5.82;;
20369;SDS011;10344;47.592;9.600;2023-01-31T07:33:37;7.95;;;5.93;;
20369;SDS011;10344;47.592;9.600;2023-01-31T07:36:04;9.18;;;6.55;;
20369;SDS011;10344;47.592;9.600;2023-01-31T07:38:31;9.27;;;6.28;;
20369;SDS011;10344;47.592;9.600;2023-01-31T07:40:58;9.38;;;6.80;;
20369;SDS011;10344;47.592;9.600;2023-01-31T07:43:25;8.25;;;6.70;;
20369;SDS011;10344;47.592;9.600;2023-01-31T07:45:51;8.75;;;6.65;;
20369;SDS011;10344;47.592;9.600;2023-01-31T07:48:17;8.48;;;6.40;;
20369;SDS011;10344;47.592;9.600;2023-01-31T07:50:49;8.43;;;6.00;;
20369;SDS011;10344;47.592;9.600;2023-01-31T07:53:21;7.60;;;6.10;;
20369;SDS011;10344;47.592;9.600;2023-01-31T07:55:47;8.10;;;6.50;;
20369;SDS011;10344;47.592;9.600;2023-01-31T07:58:13;9.20;;;6.60;;
20369;SDS011;10344;47.592;9.600;2023-01-31T08:00:42;6.95;;;6.10;;
20369;SDS011;10344;47.592;9.600;2023-01-31T08:03:27;7.60;;;5.50;;
20369;SDS011;10344;47.592;9.600;2023-01-31T08:05:57;7.82;;;5.78;;
20369;SDS011;10344;47.592;9.600;2023-01-31T08:08:26;7.88;;;5.90;;
20369;SDS011;10344;47.592;9.600;2023-01-31T08:10:52;7.85;;;6.13;;
20369;SDS011;10344;47.592;9.600;2023-01-31T08:13:17;6.50;;;5.67;;
20369;SDS011;10344;47.592;9.600;2023-01-31T08:15:45;7.72;;;5.88;;
20369;SDS011;10344;47.592;9.600;2023-01-31T08:18:11;7.83;;;5.97;;
20369;SDS011;10344;47.592;9.600;2023-01-31T08:20:37;8.00;;;6.07;;
20369;SDS011;10344;47.592;9.600;2023-01-31T08:23:02;6.90;;;5.80;;
20369;SDS011;10344;47.592;9.600;2023-01-31T08:25:28;7.68;;;5.88;;
20369;SDS011;10344;47.592;9.600;2023-01-31T08:27:56;6.33;;;5.50;;
20369;SDS011;10344;47.592;9.600;2023-01-31T08:30:22;7.88;;;6.15;;
20369;SDS011;10344;47.592;9.600;2023-01-31T08:32:50;7.88;;;5.82;;
20369;SDS011;10344;47.592;9.600;2023-01-31T08:35:16;6.70;;;5.10;;
20369;SDS011;10344;47.592;9.600;2023-01-31T08:37:41;8.38;;;5.65;;
20369;SDS011;10344;47.592;9.600;2023-01-31T08:40:07;7.83;;;5.73;;
20369;SDS011;10344;47.592;9.600;2023-01-31T08:42:34;6.15;;;5.18;;
20369;SDS011;10344;47.592;9.600;2023-01-31T08:45:02;6.75;;;5.53;;
20369;SDS011;10344;47.592;9.600;2023-01-31T08:47:31;7.10;;;4.70;;
20369;SDS011;10344;47.592;9.600;2023-01-31T08:50:00;7.22;;;5.80;;
20369;SDS011;10344;47.592;9.600;2023-01-31T08:52:28;7.22;;;5.30;;
20369;SDS011;10344;47.592;9.600;2023-01-31T08:54:59;7.47;;;5.30;;
20369;SDS011;10344;47.592;9.600;2023-01-31T08:57:24;5.95;;;5.03;;
20369;SDS011;10344;47.592;9.600;2023-01-31T08:59:50;6.70;;;5.20;;
20369;SDS011;10344;47.592;9.600;2023-01-31T09:02:16;6.55;;;5.20;;
20369;SDS011;10344;47.592;9.600;2023-01-31T09:04:41;5.37;;;4.70;;
20369;SDS011;10344;47.592;9.600;2023-01-31T09:07:09;7.53;;;5.20;;
20369;SDS011;10344;47.592;9.600;2023-01-31T09:09:35;5.85;;;4.65;;
20369;SDS011;10344;47.592;9.600;2023-01-31T09:12:01;6.13;;;4.53;;
20369;SDS011;10344;47.592;9.600;2023-01-31T09:14:28;8.98;;;4.78;;
20369;SDS011;10344;47.592;9.600;2023-01-31T09:16:55;5.68;;;4.90;;
20369;SDS011;10344;47.592;9.600;2023-01-31T09:19:21;5.47;;;4.60;;
20369;SDS011;10344;47.592;9.600;2023-01-31T09:21:47;5.20;;;4.35;;
20369;SDS011;10344;47.592;9.600;2023-01-31T09:24:13;5.10;;;4.40;;
20369;SDS011;10344;47.592;9.600;2023-01-31T09:26:44;6.28;;;4.55;;
20369;SDS011;10344;47.592;9.600;2023-01-31T09:29:09;6.63;;;4.90;;
20369;SDS011;10344;47.592;9.600;2023-01-31T09:31:38;7.28;;;5.03;;
20369;SDS011;10344;47.592;9.600;2023-01-31T09:34:06;6.35;;;4.95;;
20369;SDS011;10344;47.592;9.600;2023-01-31T09:36:31;6.53;;;4.95;;
20369;SDS011;10344;47.592;9.600;2023-01-31T09:38:57;6.73;;;4.63;;
20369;SDS011;10344;47.592;9.600;2023-01-31T09:44:19;5.68;;;4.60;;
20369;SDS011;10344;47.592;9.600;2023-01-31T09:46:58;4.97;;;4.47;;
20369;SDS011;10344;47.592;9.600;2023-01-31T09:49:58;6.68;;;4.70;;
20369;SDS011;10344;47.592;9.600;2023-01-31T09:52:24;5.45;;;4.57;;
20369;SDS011;10344;47.592;9.600;2023-01-31T09:54:52;5.97;;;4.72;;
20369;SDS011;10344;47.592;9.600;2023-01-31T10:13:04;6.07;;;4.80;;
20369;SDS011;10344;47.592;9.600;2023-01-31T10:15:41;6.25;;;4.93;;
20369;SDS011;10344;47.592;9.600;2023-01-31T10:20:51;6.55;;;5.20;;
20369;SDS011;10344;47.592;9.600;2023-01-31T10:29:10;6.30;;;5.32;;
20369;SDS011;10344;47.592;9.600;2023-01-31T10:31:51;5.70;;;5.10;;
20369;SDS011;10344;47.592;9.600;2023-01-31T10:34:27;6.78;;;5.15;;
20369;SDS011;10344;47.592;9.600;2023-01-31T10:39:30;6.93;;;5.53;;
20369;SDS011;10344;47.592;9.600;2023-01-31T10:42:04;5.60;;;4.85;;
20369;SDS011;10344;47.592;9.600;2023-01-31T10:44:49;6.68;;;5.70;;
20369;SDS011;10344;47.592;9.600;2023-01-31T10:47:20;6.93;;;5.57;;
20369;SDS011;10344;47.592;9.600;2023-01-31T10:49:57;6.88;;;5.85;;
20369;SDS011;10344;47.592;9.600;2023-01-31T10:58:13;5.90;;;5.15;;
20369;SDS011;10344;47.592;9.600;2023-01-31T11:00:42;6.83;;;5.40;;
20369;SDS011;10344;47.592;9.600;2023-01-31T11:03:10;7.57;;;5.57;;
20369;SDS011;10344;47.592;9.600;2023-01-31T11:05:38;6.88;;;5.63;;
20369;SDS011;10344;47.592;9.600;2023-01-31T11:08:46;6.70;;;5.13;;
20369;SDS011;10344;47.592;9.600;2023-01-31T11:11:10;7.25;;;5.50;;
20369;SDS011;10344;47.592;9.600;2023-01-31T11:13:38;5.93;;;5.10;;
20369;SDS011;10344;47.592;9.600;2023-01-31T11:16:08;7.78;;;5.30;;
20369;SDS011;10344;47.592;9.600;2023-01-31T11:18:37;7.70;;;6.28;;
20369;SDS011;10344;47.592;9.600;2023-01-31T11:21:15;6.07;;;5.47;;
20369;SDS011;10344;47.592;9.600;2023-01-31T11:23:45;6.85;;;5.28;;
20369;SDS011;10344;47.592;9.600;2023-01-31T11:26:23;6.85;;;5.90;;
20369;SDS011;10344;47.592;9.600;2023-01-31T11:28:50;6.90;;;5.78;;
20369;SDS011;10344;47.592;9.600;2023-01-31T11:31:23;7.57;;;5.60;;
20369;SDS011;10344;47.592;9.600;2023-01-31T11:34:01;6.63;;;5.10;;
20369;SDS011;10344;47.592;9.600;2023-01-31T11:36:32;8.48;;;6.10;;
20369;SDS011;10344;47.592;9.600;2023-01-31T11:39:17;6.78;;;5.68;;
20369;SDS011;10344;47.592;9.600;2023-01-31T11:41:53;6.82;;;5.18;;
20369;SDS011;10344;47.592;9.600;2023-01-31T11:44:22;6.60;;;5.47;;
20369;SDS011;10344;47.592;9.600;2023-01-31T11:46:53;8.43;;;5.53;;
20369;SDS011;10344;47.592;9.600;2023-01-31T11:51:56;5.65;;;4.85;;
20369;SDS011;10344;47.592;9.600;2023-01-31T11:54:30;7.13;;;5.55;;
20369;SDS011;10344;47.592;9.600;2023-01-31T11:56:58;7.00;;;5.35;;
20369;SDS011;10344;47.592;9.600;2023-01-31T11:59:26;8.10;;;5.90;;
20369;SDS011;10344;47.592;9.600;2023-01-31T12:01:57;6.15;;;5.45;;
20369;SDS011;10344;47.592;9.600;2023-01-31T12:04:25;6.82;;;5.40;;
20369;SDS011;10344;47.592;9.600;2023-01-31T12:07:05;6.75;;;5.75;;
20369;SDS011;10344;47.592;9.600;2023-01-31T12:09:45;6.23;;;5.47;;
20369;SDS011;10344;47.592;9.600;2023-01-31T12:12:21;8.10;;;5.60;;
20369;SDS011;10344;47.592;9.600;2023-01-31T12:15:00;7.93;;;5.40;;
20369;SDS011;10344;47.592;9.600;2023-01-31T12:17:45;6.40;;;5.30;;
20369;SDS011;10344;47.592;9.600;2023-01-31T12:52:30;8.68;;;6.13;;
20369;SDS011;10344;47.592;9.600;2023-01-31T12:57:42;7.00;;;5.50;;
20369;SDS011;10344;47.592;9.600;2023-01-31T13:05:51;7.15;;;5.70;;
20369;SDS011;10344;47.592;9.600;2023-01-31T13:08:28;7.72;;;6.03;;
20369;SDS011;10344;47.592;9.600;2023-01-31T13:19:03;8.60;;;6.07;;
20369;SDS011;10344;47.592;9.600;2023-01-31T13:21:51;8.50;;;6.53;;
20369;SDS011;10344;47.592;9.600;2023-01-31T13:24:23;8.00;;;6.22;;
20369;SDS011;10344;47.592;9.600;2023-01-31T13:26:57;7.72;;;6.28;;
20369;SDS011;10344;47.592;9.600;2023-01-31T13:29:35;9.65;;;6.95;;
20369;SDS011;10344;47.592;9.600;2023-01-31T13:35:12;10.95;;;7.03;;
20369;SDS011;10344;47.592;9.600;2023-01-31T13:37:41;9.50;;;6.65;;
20369;SDS011;10344;47.592;9.600;2023-01-31T13:40:15;7.60;;;6.15;;
20369;SDS011;10344;47.592;9.600;2023-01-31T13:42:46;6.78;;;5.60;;
20369;SDS011;10344;47.592;9.600;2023-01-31T13:45:21;10.95;;;6.38;;
20369;SDS011;10344;47.592;9.600;2023-01-31T13:47:53;7.32;;;5.68;;
20369;SDS011;10344;47.592;9.600;2023-01-31T13:53:34;9.47;;;5.90;;
20369;SDS011;10344;47.592;9.600;2023-01-31T13:56:11;8.07;;;6.20;;
20369;SDS011;10344;47.592;9.600;2023-01-31T13:58:46;9.55;;;6.43;;
20369;SDS011;10344;47.592;9.600;2023-01-31T14:01:19;6.75;;;5.57;;
20369;SDS011;10344;47.592;9.600;2023-01-31T14:09:42;8.65;;;6.60;;
20369;SDS011;10344;47.592;9.600;2023-01-31T14:17:12;8.02;;;6.10;;
20369;SDS011;10344;47.592;9.600;2023-01-31T14:34:59;8.23;;;6.35;;
20369;SDS011;10344;47.592;9.600;2023-01-31T14:40:26;10.70;;;7.63;;
20369;SDS011;10344;47.592;9.600;2023-01-31T14:51:27;8.43;;;7.35;;
20369;SDS011;10344;47.592;9.600;2023-01-31T14:57:16;8.90;;;7.20;;
20369;SDS011;10344;47.592;9.600;2023-01-31T15:04:56;9.90;;;6.93;;
20369;SDS011;10344;47.592;9.600;2023-01-31T15:07:23;8.25;;;6.63;;
20369;SDS011;10344;47.592;9.600;2023-01-31T15:09:51;8.40;;;6.20;;
20369;SDS011;10344;47.592;9.600;2023-01-31T15:15:24;9.70;;;6.72;;
20369;SDS011;10344;47.592;9.600;2023-01-31T15:18:04;10.07;;;7.05;;
20369;SDS011;10344;47.592;9.600;2023-01-31T15:20:46;9.05;;;6.72;;
20369;SDS011;10344;47.592;9.600;2023-01-31T15:23:20;9.52;;;6.72;;
20369;SDS011;10344;47.592;9.600;2023-01-31T15:25:48;8.88;;;6.53;;
20369;SDS011;10344;47.592;9.600;2023-01-31T15:28:16;7.78;;;6.10;;
20369;SDS011;10344;47.592;9.600;2023-01-31T15:31:06;7.80;;;6.15;;
20369;SDS011;10344;47.592;9.600;2023-01-31T15:33:50;7.18;;;5.38;;
20369;SDS011;10344;47.592;9.600;2023-01-31T15:36:31;7.97;;;5.40;;
20369;SDS011;10344;47.592;9.600;2023-01-31T15:39:15;6.70;;;4.75;;
20369;SDS011;10344;47.592;9.600;2023-01-31T15:41:47;8.73;;;5.53;;
20369;SDS011;10344;47.592;9.600;2023-01-31T15:44:20;7.15;;;5.00;;
20369;SDS011;10344;47.592;9.600;2023-01-31T15:46:51;8.25;;;5.05;;
20369;SDS011;10344;47.592;9.600;2023-01-31T15:54:36;7.18;;;4.57;;
20369;SDS011;10344;47.592;9.600;2023-01-31T15:57:03;6.03;;;4.40;;
20369;SDS011;10344;47.592;9.600;2023-01-31T15:59:33;5.03;;;4.13;;
20369;SDS011;10344;47.592;9.600;2023-01-31T16:01:59;6.47;;;4.68;;
20369;SDS011;10344;47.592;9.600;2023-01-31T16:04:27;5.88;;;4.53;;
20369;SDS011;10344;47.592;9.600;2023-01-31T16:06:56;6.40;;;4.78;;
20369;SDS011;10344;47.592;9.600;2023-01-31T16:09:28;4.72;;;4.00;;
20369;SDS011;10344;47.592;9.600;2023-01-31T16:11:59;6.93;;;4.80;;
20369;SDS011;10344;47.592;9.600;2023-01-31T16:14:28;6.43;;;4.40;;
20369;SDS011;10344;47.592;9.600;2023-01-31T16:16:57;6.57;;;4.30;;
20369;SDS011;10344;47.592;9.600;2023-01-31T16:19:27;4.97;;;4.22;;
20369;SDS011;10344;47.592;9.600;2023-01-31T16:21:56;6.68;;;4.40;;
20369;SDS011;10344;47.592;9.600;2023-01-31T16:24:23;5.63;;;4.30;;
20369;SDS011;10344;47.592;9.600;2023-01-31T16:26:59;7.00;;;4.30;;
20369;SDS011;10344;47.592;9.600;2023-01-31T16:29:43;6.78;;;4.28;;
20369;SDS011;10344;47.592;9.600;2023-01-31T16:34:40;7.50;;;4.32;;
20369;SDS011;10344;47.592;9.600;2023-01-31T16:37:06;5.72;;;4.20;;
20369;SDS011;10344;47.592;9.600;2023-01-31T16:39:43;6.80;;;4.00;;
20369;SDS011;10344;47.592;9.600;2023-01-31T16:44:41;7.65;;;4.60;;
20369;SDS011;10344;47.592;9.600;2023-01-31T16:52:41;6.13;;;4.10;;
20369;SDS011;10344;47.592;9.600;2023-01-31T17:15:15;6.55;;;4.63;;
20369;SDS011;10344;47.592;9.600;2023-01-31T17:17:43;6.13;;;4.55;;
20369;SDS011;10344;47.592;9.600;2023-01-31T17:20:13;7.63;;;5.20;;
20369;SDS011;10344;47.592;9.600;2023-01-31T17:22:40;9.20;;;5.35;;
20369;SDS011;10344;47.592;9.600;2023-01-31T17:25:15;9.13;;;5.32;;
20369;SDS011;10344;47.592;9.600;2023-01-31T17:27:46;6.57;;;4.90;;
20369;SDS011;10344;47.592;9.600;2023-01-31T17:30:15;7.60;;;5.25;;
20369;SDS011;10344;47.592;9.600;2023-01-31T17:32:44;7.10;;;4.78;;
20369;SDS011;10344;47.592;9.600;2023-01-31T17:35:17;9.40;;;4.95;;
20369;SDS011;10344;47.592;9.600;2023-01-31T17:37:46;9.37;;;5.10;;
20369;SDS011;10344;47.592;9.600;2023-01-31T17:40:14;7.10;;;4.68;;
20369;SDS011;10344;47.592;9.600;2023-01-31T17:47:36;7.60;;;4.90;;
20369;SDS011;10344;47.592;9.600;2023-01-31T17:52:28;6.50;;;4.50;;
20369;SDS011;10344;47.592;9.600;2023-01-31T18:21:44;7.07;;;4.60;;
20369;SDS011;10344;47.592;9.600;2023-01-31T18:24:09;6.67;;;4.60;;
20369;SDS011;10344;47.592;9.600;2023-01-31T18:26:37;7.00;;;4.70;;
20369;SDS011;10344;47.592;9.600;2023-01-31T18:29:03;8.63;;;5.72;;
20369;SDS011;10344;47.592;9.600;2023-01-31T18:31:30;8.75;;;6.22;;
20369;SDS011;10344;47.592;9.600;2023-01-31T18:33:57;9.75;;;6.60;;
20369;SDS011;10344;47.592;9.600;2023-01-31T18:36:23;7.28;;;5.65;;
20369;SDS011;10344;47.592;9.600;2023-01-31T18:38:49;6.83;;;5.00;;
20369;SDS011;10344;47.592;9.600;2023-01-31T18:41:16;7.35;;;5.10;;
20369;SDS011;10344;47.592;9.600;2023-01-31T18:43:43;8.32;;;4.63;;
20369;SDS011;10344;47.592;9.600;2023-01-31T18:46:10;7.63;;;4.85;;
20369;SDS011;10344;47.592;9.600;2023-01-31T18:48:43;7.25;;;4.70;;
20369;SDS011;10344;47.592;9.600;2023-01-31T18:51:10;7.47;;;5.10;;
20369;SDS011;10344;47.592;9.600;2023-01-31T18:53:40;7.80;;;4.75;;
20369;SDS011;10344;47.592;9.600;2023-01-31T18:56:10;7.95;;;5.32;;
20369;SDS011;10344;47.592;9.600;2023-01-31T18:58:41;7.50;;;5.20;;
20369;SDS011;10344;47.592;9.600;2023-01-31T19:01:24;7.60;;;4.70;;
20369;SDS011;10344;47.592;9.600;2023-01-31T19:03:51;6.70;;;5.07;;
20369;SDS011;10344;47.592;9.600;2023-01-31T19:06:18;7.20;;;4.97;;
20369;SDS011;10344;47.592;9.600;2023-01-31T19:08:56;7.53;;;5.20;;
20369;SDS011;10344;47.592;9.600;2023-01-31T19:11:23;7.13;;;5.22;;
20369;SDS011;10344;47.592;9.600;2023-01-31T19:13:52;8.05;;;5.00;;
20369;SDS011;10344;47.592;9.600;2023-01-31T19:16:19;6.80;;;4.88;;
20369;SDS011;10344;47.592;9.600;2023-01-31T19:18:49;7.28;;;4.75;;
20369;SDS011;10344;47.592;9.600;2023-01-31T19:21:22;7.20;;;4.85;;
20369;SDS011;10344;47.592;9.600;2023-01-31T19:23:50;7.25;;;4.78;;
20369;SDS011;10344;47.592;9.600;2023-01-31T19:26:17;7.33;;;5.37;;
20369;SDS011;10344;47.592;9.600;2023-01-31T19:28:44;6.05;;;4.28;;
20369;SDS011;10344;47.592;9.600;2023-01-31T19:31:20;7.90;;;5.05;;